Montclair, Colorado
Current Conditions -  °F | °C
As of 3:58 PM on Tuesday 21 Oct 2014 (Local Time) from KBKF Reporting Station
Broken Clouds Broken Clouds  
Wind Chill: 72°   Ceiling: 14000
Heat Index: 72°   Visibility: 10mi
Dew Point: 35°   Wind: 2mph
Humidity: 26%   Direction: 320°NW
Pressure: 29.93"   Gusts: NA
Location:  39.732°N, 104.924°W
Report Text: KBKF 212158Z 32002KT 10SM FEW080 BKN140 BKN220 22/02 A2993 RMK AO2A SLP073 T02220015
Loading
Personal Weather Stations






























Interactive Weather Map
Tropical Storm Tracking
New forecast layout! Learn more

10-Day Weather Forecast

Advertisements
Track Severe Weather on mobile